createdAt,value
2019-05-12T00:01:12.652Z,86.70
2019-05-12T00:03:23.604Z,86.49
2019-05-12T00:05:34.443Z,86.11
2019-05-12T00:07:45.395Z,85.88
2019-05-12T00:09:58.192Z,86.42
2019-05-12T00:12:09.138Z,86.48
2019-05-12T00:14:19.975Z,86.08
2019-05-12T00:16:30.836Z,85.93
2019-05-12T00:18:41.725Z,85.40
2019-05-12T00:20:52.602Z,85.88
2019-05-12T00:23:22.404Z,85.65
2019-05-12T00:25:18.445Z,85.86
2019-05-12T00:27:29.410Z,86.08
2019-05-12T00:29:40.572Z,85.75
2019-05-12T00:31:51.544Z,85.73
2019-05-12T00:34:02.839Z,85.72
2019-05-12T00:36:13.680Z,85.72
2019-05-12T00:38:24.556Z,85.95
2019-05-12T00:40:38.828Z,85.76
2019-05-12T00:42:48.751Z,86.09
2019-05-12T00:44:59.620Z,86.12
2019-05-12T00:47:10.565Z,86.78
2019-05-12T00:49:21.431Z,86.30
2019-05-12T00:51:32.385Z,85.90
2019-05-12T00:53:43.561Z,85.81
2019-05-12T00:55:54.397Z,85.62
2019-05-12T00:58:08.161Z,85.85
2019-05-12T01:00:19.135Z,85.97
2019-05-12T01:02:30.022Z,85.97
2019-05-12T01:04:40.897Z,86.15
2019-05-12T01:06:52.127Z,86.44
2019-05-12T01:09:04.924Z,86.48
2019-05-12T01:11:17.814Z,86.61
2019-05-12T01:13:28.727Z,86.50
2019-05-12T01:15:39.703Z,85.96
2019-05-12T01:17:50.665Z,85.96
2019-05-12T01:20:02.839Z,85.70
2019-05-12T01:22:13.670Z,86.07
2019-05-12T01:24:24.562Z,86.18
2019-05-12T01:26:35.421Z,85.93
2019-05-12T01:28:48.308Z,86.06
2019-05-12T01:31:00.956Z,86.30
2019-05-12T01:33:11.942Z,86.47
2019-05-12T01:35:22.816Z,86.48
2019-05-12T01:37:33.680Z,86.50
2019-05-12T01:39:44.521Z,86.62
2019-05-12T01:41:55.385Z,86.80
2019-05-12T01:44:08.612Z,86.80
2019-05-12T01:46:19.088Z,86.91
2019-05-12T01:48:29.923Z,86.72
2019-05-12T01:50:40.789Z,86.76
2019-05-12T01:52:51.770Z,86.82
2019-05-12T01:55:05.113Z,86.91
2019-05-12T01:57:18.648Z,87.01
2019-05-12T01:59:28.934Z,86.83
2019-05-12T02:01:39.792Z,86.68
2019-05-12T02:03:50.640Z,86.25
2019-05-12T02:06:02.703Z,86.66
2019-05-12T02:08:21.269Z,86.78
2019-05-12T02:10:32.213Z,86.73
2019-05-12T02:12:43.207Z,86.57
2019-05-12T02:14:54.155Z,86.67
2019-05-12T02:17:05.146Z,86.76
2019-05-12T02:19:17.808Z,86.59
2019-05-12T02:21:28.744Z,86.53
2019-05-12T02:23:39.687Z,86.69
2019-05-12T02:25:51.307Z,86.67
2019-05-12T02:28:02.350Z,86.73
2019-05-12T02:30:14.394Z,86.77
2019-05-12T02:32:35.546Z,86.87
2019-05-12T02:34:38.129Z,86.75
2019-05-12T02:36:49.059Z,86.76
2019-05-12T02:38:59.903Z,86.94
2019-05-12T02:41:10.848Z,86.90
2019-05-12T02:43:24.386Z,87.08
2019-05-12T02:45:35.555Z,86.20
2019-05-12T02:47:47.076Z,86.09
2019-05-12T02:49:58.022Z,86.09
2019-05-12T02:52:09.138Z,86.41
2019-05-12T02:54:20.091Z,86.15
2019-05-12T02:56:35.216Z,85.96
2019-05-12T02:58:45.409Z,85.94
2019-05-12T03:00:56.764Z,86.16
2019-05-12T03:03:07.944Z,85.99
2019-05-12T03:05:18.876Z,86.25
2019-05-12T03:07:30.864Z,86.43
2019-05-12T03:09:44.569Z,86.52
2019-05-12T03:11:55.687Z,86.59
2019-05-12T03:14:06.696Z,86.82
2019-05-12T03:16:17.531Z,86.82
2019-05-12T03:18:28.399Z,86.85
2019-05-12T03:20:39.251Z,86.80
2019-05-12T03:22:50.108Z,87.03
2019-05-12T03:25:11.335Z,87.45
2019-05-12T03:27:14.584Z,87.12
2019-05-12T03:29:26.580Z,86.59
2019-05-12T03:31:40.742Z,86.39
2019-05-12T03:33:54.130Z,85.73
2019-05-12T03:36:08.506Z,86.14
2019-05-12T03:38:15.803Z,85.91
2019-05-12T03:40:26.659Z,86.14
2019-05-12T03:42:37.502Z,85.97
2019-05-12T03:44:48.355Z,86.37
2019-05-12T03:46:59.310Z,86.41
2019-05-12T03:49:10.168Z,86.28
2019-05-12T03:51:24.824Z,86.23
2019-05-12T03:53:35.276Z,86.37
2019-05-12T03:55:47.319Z,86.56
2019-05-12T03:57:58.436Z,86.14
2019-05-12T04:00:09.691Z,85.94
2019-05-12T04:02:20.569Z,86.30
2019-05-12T04:04:34.522Z,86.21
2019-05-12T04:06:45.316Z,85.95
2019-05-12T04:08:59.876Z,86.06
2019-05-12T04:11:09.250Z,86.40
2019-05-12T04:13:20.062Z,86.21
2019-05-12T04:15:31.045Z,86.16
2019-05-12T04:17:45.167Z,86.43
2019-05-12T04:19:56.391Z,86.18
2019-05-12T04:22:07.217Z,86.25
2019-05-12T04:24:18.062Z,86.39
2019-05-12T04:26:28.992Z,86.12
2019-05-12T04:28:39.841Z,86.29
2019-05-12T04:30:50.723Z,86.23
2019-05-12T04:33:04.435Z,86.42
2019-05-12T04:35:15.049Z,86.39
2019-05-12T04:37:26.043Z,85.86
2019-05-12T04:39:36.869Z,86.04
2019-05-12T04:41:47.752Z,86.18
2019-05-12T04:43:58.594Z,86.42
2019-05-12T04:46:09.474Z,86.58
2019-05-12T04:48:21.580Z,86.80
2019-05-12T04:50:35.317Z,86.68
2019-05-12T04:52:45.536Z,86.84
2019-05-12T04:54:56.476Z,87.04
2019-05-12T04:57:07.328Z,86.82
2019-05-12T04:59:18.167Z,86.40
2019-05-12T05:01:29.044Z,86.47
2019-05-12T05:03:40.005Z,86.49
2019-05-12T05:05:50.857Z,86.70
2019-05-12T05:08:04.367Z,86.48
2019-05-12T05:10:14.841Z,86.55
2019-05-12T05:12:25.841Z,86.82
2019-05-12T05:14:36.690Z,87.03
2019-05-12T05:16:47.559Z,86.89
2019-05-12T05:18:58.507Z,87.00
2019-05-12T05:21:09.359Z,87.22
2019-05-12T05:23:20.221Z,87.58
2019-05-12T05:25:34.062Z,87.30
2019-05-12T05:27:45.115Z,86.82
2019-05-12T05:29:56.051Z,86.29
2019-05-12T05:32:06.932Z,86.43
2019-05-12T05:34:17.777Z,86.41
2019-05-12T05:36:28.610Z,86.14
2019-05-12T05:38:39.477Z,85.52
2019-05-12T05:40:50.353Z,85.67
2019-05-12T05:43:03.560Z,85.73
2019-05-12T05:45:19.507Z,85.84
2019-05-12T05:47:28.555Z,85.88
2019-05-12T05:49:39.681Z,86.00
2019-05-12T05:51:55.108Z,85.61
2019-05-12T05:54:04.090Z,85.95
2019-05-12T05:56:18.204Z,86.01
2019-05-12T05:58:27.815Z,85.61
2019-05-12T06:00:39.585Z,85.48
2019-05-12T06:02:50.613Z,85.86
2019-05-12T06:05:04.226Z,85.57
2019-05-12T06:07:14.462Z,85.44
2019-05-12T06:09:25.368Z,84.34
2019-05-12T06:11:36.209Z,84.31
2019-05-12T06:13:47.260Z,84.24
2019-05-12T06:15:58.107Z,84.45
2019-05-12T06:18:08.963Z,83.97
2019-05-12T06:20:20.020Z,84.74
2019-05-12T06:22:30.884Z,83.92
2019-05-12T06:24:44.018Z,83.36
2019-05-12T06:27:00.218Z,82.83
2019-05-12T06:29:11.272Z,83.54
2019-05-12T06:31:25.218Z,83.29
2019-05-12T06:33:36.257Z,83.93
2019-05-12T06:35:46.056Z,83.18
2019-05-12T06:38:01.056Z,82.55
2019-05-12T06:40:09.786Z,82.51
2019-05-12T06:42:20.737Z,83.51
2019-05-12T06:44:33.486Z,82.59
2019-05-12T06:46:44.622Z,83.11
2019-05-12T06:49:00.263Z,82.46
2019-05-12T06:51:09.144Z,83.34
2019-05-12T06:53:28.415Z,81.71
2019-05-12T06:55:38.862Z,81.53
2019-05-12T06:57:50.117Z,78.09
2019-05-12T06:59:59.448Z,76.49
2019-05-12T07:02:10.418Z,75.04
2019-05-12T07:07:00.713Z,74.53
2019-05-12T07:09:16.464Z,70.87
2019-05-12T07:11:24.568Z,68.38
2019-05-12T07:13:35.572Z,67.58
2019-05-12T07:15:46.466Z,68.57
2019-05-12T07:17:59.192Z,69.80
2019-05-12T07:20:10.428Z,69.15
2019-05-12T07:22:23.394Z,69.71
2019-05-12T07:24:34.253Z,68.92
2019-05-12T07:26:47.961Z,69.47
2019-05-12T07:28:57.942Z,71.18
2019-05-12T07:31:08.888Z,69.54
2019-05-12T07:33:19.723Z,67.92
2019-05-12T07:35:33.697Z,66.48
2019-05-12T07:37:45.355Z,64.93
2019-05-12T07:39:56.233Z,65.67
2019-05-12T07:42:07.289Z,63.39
2019-05-12T07:44:22.223Z,67.09
2019-05-12T07:46:34.257Z,67.62
2019-05-12T07:48:50.712Z,66.76
2019-05-12T07:51:00.604Z,65.55
2019-05-12T07:53:10.918Z,66.05
2019-05-12T07:55:23.680Z,68.26
2019-05-12T07:57:40.804Z,67.57
2019-05-12T07:59:47.297Z,66.33
2019-05-12T08:01:58.306Z,67.42
2019-05-12T08:04:09.139Z,68.16
2019-05-12T08:06:20.121Z,67.26
2019-05-12T08:08:30.984Z,67.36
2019-05-12T08:10:44.145Z,66.52
2019-05-12T08:12:58.947Z,67.29
2019-05-12T08:15:09.831Z,65.75
2019-05-12T08:17:20.877Z,66.74
2019-05-12T08:19:33.778Z,68.14
2019-05-12T08:21:49.164Z,65.93
2019-05-12T08:23:57.415Z,67.53
2019-05-12T08:26:12.051Z,66.61
2019-05-12T08:28:27.954Z,64.27
2019-05-12T08:30:40.363Z,63.71
2019-05-12T08:32:48.179Z,62.09
2019-05-12T08:34:59.132Z,62.88
2019-05-12T08:37:10.012Z,60.89
2019-05-12T08:39:23.620Z,61.25
2019-05-12T08:41:34.280Z,59.62
2019-05-12T08:43:48.818Z,61.01
2019-05-12T08:46:00.291Z,59.92
2019-05-12T08:48:17.060Z,60.48
2019-05-12T08:50:31.515Z,60.82
2019-05-12T08:52:41.355Z,59.51
2019-05-12T08:54:49.550Z,55.99
2019-05-12T08:57:01.271Z,53.92
2019-05-12T08:59:15.574Z,50.22
2019-05-12T09:01:30.463Z,52.74
2019-05-12T09:03:38.382Z,53.78
2019-05-12T09:05:49.552Z,53.90
2019-05-12T09:08:00.645Z,55.86
2019-05-12T09:10:14.310Z,54.55
2019-05-12T09:12:25.323Z,57.55
2019-05-12T09:14:41.303Z,60.01
2019-05-12T09:16:55.956Z,60.09
2019-05-12T09:19:04.646Z,58.68
2019-05-12T09:21:15.150Z,60.23
2019-05-12T09:23:26.009Z,58.52
2019-05-12T09:25:39.270Z,58.81
2019-05-12T09:27:49.758Z,62.49
2019-05-12T09:30:08.299Z,61.69
2019-05-12T09:32:14.524Z,59.94
2019-05-12T09:34:25.690Z,57.42
2019-05-12T09:36:38.497Z,57.57
2019-05-12T09:38:55.852Z,57.40
2019-05-12T09:41:03.256Z,58.76
2019-05-12T09:43:14.996Z,59.85
2019-05-12T09:45:26.483Z,61.00
2019-05-12T09:47:37.359Z,61.08
2019-05-12T09:49:48.222Z,61.71
2019-05-12T09:51:59.096Z,63.48
2019-05-12T09:54:09.944Z,61.99
2019-05-12T09:56:20.921Z,63.44
2019-05-12T09:58:33.640Z,62.89
2019-05-12T10:00:44.753Z,62.26
2019-05-12T10:02:59.022Z,64.00
2019-05-12T10:05:08.684Z,63.80
2019-05-12T10:07:19.587Z,64.00
2019-05-12T10:09:30.451Z,63.03
2019-05-12T10:11:41.338Z,64.38
2019-05-12T10:13:54.202Z,61.54
2019-05-12T10:16:08.800Z,64.42
2019-05-12T10:18:17.937Z,62.97
2019-05-12T10:20:29.074Z,63.73
2019-05-12T10:22:43.823Z,64.32
2019-05-12T10:24:57.847Z,63.55
2019-05-12T10:27:07.154Z,63.10
2019-05-12T10:29:20.785Z,64.18
2019-05-12T10:31:35.592Z,64.23
2019-05-12T10:33:43.545Z,63.05
2019-05-12T10:35:54.422Z,64.84
2019-05-12T10:38:09.169Z,67.20
2019-05-12T10:40:18.531Z,64.27
2019-05-12T10:42:29.396Z,63.67
2019-05-12T10:44:40.980Z,63.08
2019-05-12T10:46:53.936Z,63.55
2019-05-12T10:49:04.862Z,63.46
2019-05-12T10:51:15.747Z,63.24
2019-05-12T10:53:26.596Z,62.69
2019-05-12T10:55:37.494Z,64.36
2019-05-12T10:57:52.939Z,65.84
2019-05-12T11:00:04.203Z,66.01
2019-05-12T11:02:15.011Z,66.99
2019-05-12T11:04:35.563Z,65.47
2019-05-12T11:06:39.617Z,64.94
2019-05-12T11:08:51.527Z,67.42
2019-05-12T11:11:04.175Z,65.78
2019-05-12T11:13:18.052Z,66.37
2019-05-12T11:15:28.195Z,61.52
2019-05-12T11:17:53.508Z,57.45
2019-05-12T11:20:04.526Z,56.13
2019-05-12T11:22:15.410Z,49.99
2019-05-12T11:24:26.267Z,51.55
2019-05-12T11:26:37.219Z,52.74
2019-05-12T11:28:48.093Z,51.65
2019-05-12T11:30:59.151Z,51.83
2019-05-12T11:33:10.027Z,52.97
2019-05-12T11:35:20.957Z,54.85
2019-05-12T11:37:33.814Z,53.44
2019-05-12T11:39:47.524Z,53.85
2019-05-12T11:41:57.614Z,54.60
2019-05-12T11:44:08.482Z,53.01
2019-05-12T11:46:19.418Z,54.47
2019-05-12T11:48:30.413Z,54.61
2019-05-12T11:50:47.798Z,54.73
2019-05-12T11:52:54.384Z,51.85
2019-05-12T11:55:05.696Z,52.68
2019-05-12T11:57:20.078Z,52.25
2019-05-12T11:59:31.333Z,49.10
2019-05-12T12:01:45.611Z,48.44
2019-05-12T12:03:55.708Z,54.29
2019-05-12T12:06:06.558Z,46.56
2019-05-12T12:08:17.450Z,47.82
2019-05-12T12:10:29.269Z,46.64
2019-05-12T12:12:45.324Z,43.01
2019-05-12T12:14:54.099Z,44.05
2019-05-12T12:17:05.192Z,43.48
2019-05-12T12:19:16.061Z,44.45
2019-05-12T12:21:26.910Z,46.90
2019-05-12T12:23:40.913Z,47.91
2019-05-12T12:25:50.621Z,48.31
2019-05-12T12:28:01.566Z,51.05
2019-05-12T12:30:19.254Z,50.70
2019-05-12T12:32:27.619Z,49.07
2019-05-12T12:34:38.606Z,50.65
2019-05-12T12:36:49.564Z,48.88
2019-05-12T12:39:00.427Z,44.13
2019-05-12T12:41:13.204Z,46.45
2019-05-12T12:43:24.797Z,45.12
2019-05-12T12:45:50.025Z,46.86
2019-05-12T12:48:00.991Z,47.85
2019-05-12T12:50:13.316Z,48.00
2019-05-12T12:52:24.473Z,47.20
2019-05-12T12:54:35.346Z,46.20
2019-05-12T12:56:46.238Z,43.82
2019-05-12T12:59:04.140Z,45.55
2019-05-12T13:01:14.123Z,45.97
2019-05-12T13:03:25.745Z,44.00
2019-05-12T13:05:35.520Z,46.10
2019-05-12T13:07:46.394Z,46.40
2019-05-12T13:10:07.408Z,44.76
2019-05-12T13:12:15.862Z,44.93
2019-05-12T13:14:23.406Z,43.34
2019-05-12T13:16:35.619Z,44.53
2019-05-12T13:18:46.523Z,44.21
2019-05-12T13:20:58.144Z,42.98
2019-05-12T13:23:09.170Z,44.57
2019-05-12T13:25:20.073Z,43.57
2019-05-12T13:27:34.124Z,43.65
2019-05-12T13:29:43.698Z,43.59
2019-05-12T13:31:54.633Z,41.96
2019-05-12T13:34:05.619Z,42.47
2019-05-12T13:36:16.585Z,42.83
2019-05-12T13:38:30.478Z,42.64
2019-05-12T13:40:40.217Z,41.60
2019-05-12T13:42:51.292Z,41.47
2019-05-12T13:45:04.258Z,41.31
2019-05-12T13:47:15.134Z,37.64
2019-05-12T13:49:30.091Z,38.10
2019-05-12T13:51:43.114Z,38.41
2019-05-12T13:53:51.683Z,38.33
2019-05-12T13:56:04.699Z,36.80
2019-05-12T13:58:15.729Z,37.75
2019-05-12T14:00:26.677Z,40.68
2019-05-12T14:02:37.575Z,39.75
2019-05-12T14:04:48.530Z,42.00
2019-05-12T14:06:59.501Z,42.97
2019-05-12T14:09:10.368Z,41.76
2019-05-12T14:11:23.655Z,40.61
2019-05-12T14:13:34.028Z,41.68
2019-05-12T14:15:44.928Z,39.16
2019-05-12T14:17:55.773Z,37.06
2019-05-12T14:20:09.257Z,36.86
2019-05-12T14:22:24.441Z,37.73
2019-05-12T14:24:41.745Z,40.56
2019-05-12T14:26:49.273Z,39.97
2019-05-12T14:28:58.191Z,40.08
2019-05-12T14:31:09.141Z,36.75
2019-05-12T14:33:20.003Z,36.26
2019-05-12T14:35:32.610Z,36.08
2019-05-12T14:37:45.935Z,36.54
2019-05-12T14:39:58.633Z,35.20
2019-05-12T14:42:09.471Z,33.11
2019-05-12T14:44:20.347Z,36.55
2019-05-12T14:46:33.313Z,38.82
2019-05-12T14:48:46.448Z,38.65
2019-05-12T14:50:56.926Z,39.00
2019-05-12T14:53:07.776Z,38.35
2019-05-12T14:55:18.623Z,38.43
2019-05-12T14:57:34.637Z,38.91
2019-05-12T14:59:42.292Z,39.92
2019-05-12T15:01:59.082Z,42.09
2019-05-12T15:04:05.913Z,41.23
2019-05-12T15:06:19.425Z,39.12
2019-05-12T15:08:36.292Z,40.19
2019-05-12T15:10:42.519Z,39.07
2019-05-12T15:12:54.397Z,37.23
2019-05-12T15:15:09.199Z,36.69
2019-05-12T15:17:22.447Z,37.57
2019-05-12T15:19:33.426Z,38.16
2019-05-12T15:21:44.449Z,38.11
2019-05-12T15:23:55.304Z,38.73
2019-05-12T15:26:09.618Z,39.52
2019-05-12T15:28:18.930Z,40.46
2019-05-12T15:30:29.905Z,40.98
2019-05-12T15:32:40.765Z,40.96
2019-05-12T15:34:51.605Z,39.82
2019-05-12T15:37:04.161Z,47.37
2019-05-12T15:39:15.286Z,44.36
2019-05-12T15:41:26.169Z,45.14
2019-05-12T15:43:44.209Z,37.77
2019-05-12T15:45:55.302Z,37.51
2019-05-12T15:48:04.050Z,38.83
2019-05-12T15:50:15.436Z,38.93
2019-05-12T15:52:29.965Z,40.73
2019-05-12T15:54:45.819Z,40.29
2019-05-12T15:56:55.736Z,40.79
2019-05-12T15:59:06.659Z,42.55
2019-05-12T16:01:17.527Z,39.22
2019-05-12T16:03:28.371Z,40.95
2019-05-12T16:05:39.242Z,42.39
2019-05-12T16:07:50.127Z,39.70
2019-05-12T16:10:01.070Z,41.40
2019-05-12T16:12:19.997Z,42.17
2019-05-12T16:14:24.784Z,41.69
2019-05-12T16:16:42.501Z,41.38
2019-05-12T16:18:50.683Z,41.54
2019-05-12T16:21:05.101Z,42.68
2019-05-12T16:23:25.104Z,42.42
2019-05-12T16:25:30.641Z,42.59
2019-05-12T16:27:44.292Z,41.32
2019-05-12T16:29:54.572Z,41.76
2019-05-12T16:32:05.655Z,40.65
2019-05-12T16:34:16.507Z,41.69
2019-05-12T16:36:27.491Z,42.03
2019-05-12T16:38:38.571Z,41.02
2019-05-12T16:40:49.994Z,42.52
2019-05-12T16:43:00.901Z,42.16
2019-05-12T16:45:14.304Z,42.59
2019-05-12T16:47:29.044Z,43.04
2019-05-12T16:49:37.936Z,42.68
2019-05-12T16:51:48.795Z,42.20
2019-05-12T16:53:59.838Z,42.01
2019-05-12T16:56:10.823Z,41.49
2019-05-12T16:58:24.510Z,41.81
2019-05-12T17:00:39.571Z,42.78
2019-05-12T17:02:55.194Z,41.22
2019-05-12T17:05:00.309Z,42.04
2019-05-12T17:07:17.342Z,41.75
2019-05-12T17:09:24.131Z,41.56
2019-05-12T17:11:37.217Z,41.67
2019-05-12T17:13:56.816Z,42.42
2019-05-12T17:16:00.689Z,42.33
2019-05-12T17:18:13.605Z,42.26
2019-05-12T17:20:24.328Z,42.07
2019-05-12T17:22:35.182Z,43.29
2019-05-12T17:24:46.081Z,42.06
2019-05-12T17:26:56.925Z,42.76
2019-05-12T17:29:08.043Z,43.11
2019-05-12T17:31:19.050Z,43.11
2019-05-12T17:33:30.047Z,42.98
2019-05-12T17:35:41.067Z,42.06
2019-05-12T17:37:53.550Z,42.37
2019-05-12T17:40:09.337Z,42.76
2019-05-12T17:42:21.504Z,43.19
2019-05-12T17:44:31.286Z,43.64
2019-05-12T17:46:44.232Z,42.38
2019-05-12T17:48:55.154Z,42.39
2019-05-12T17:51:06.120Z,42.31
2019-05-12T17:53:17.884Z,42.60
2019-05-12T17:55:28.802Z,41.48
2019-05-12T17:57:39.789Z,41.96
2019-05-12T17:59:50.838Z,42.31
2019-05-12T18:02:05.775Z,42.75
2019-05-12T18:04:14.689Z,43.43
2019-05-12T18:06:29.560Z,43.40
2019-05-12T18:08:38.847Z,43.39
2019-05-12T18:10:49.988Z,43.30
2019-05-12T18:13:00.975Z,43.62
2019-05-12T18:15:14.692Z,44.22
2019-05-12T18:17:24.993Z,44.21
2019-05-12T18:19:35.865Z,45.18
2019-05-12T18:21:47.014Z,45.18
2019-05-12T18:24:00.478Z,45.85
2019-05-12T18:26:12.342Z,45.33
2019-05-12T18:28:27.546Z,45.75
2019-05-12T18:30:36.461Z,46.64
2019-05-12T18:32:47.364Z,47.74
2019-05-12T18:34:58.318Z,47.94
2019-05-12T18:37:09.269Z,48.35
2019-05-12T18:39:20.122Z,47.87
2019-05-12T18:41:33.537Z,47.70
2019-05-12T18:43:43.863Z,48.23
2019-05-12T18:45:58.872Z,48.81
2019-05-12T18:48:16.778Z,49.45
2019-05-12T18:50:26.321Z,49.47
2019-05-12T18:52:39.279Z,50.01
2019-05-12T18:54:52.084Z,49.94
2019-05-12T18:57:04.861Z,50.94
2019-05-12T18:59:16.071Z,51.11
2019-05-12T19:01:24.824Z,51.37
2019-05-12T19:03:47.129Z,52.09
2019-05-12T19:05:48.498Z,52.82
2019-05-12T19:07:59.380Z,52.42
2019-05-12T19:10:10.454Z,52.03
2019-05-12T19:12:31.132Z,52.47
2019-05-12T19:14:37.088Z,53.31
2019-05-12T19:16:47.312Z,53.68
2019-05-12T19:18:58.168Z,53.70
2019-05-12T19:21:10.218Z,54.51
2019-05-12T19:23:26.849Z,54.31
2019-05-12T19:25:38.718Z,54.54
2019-05-12T19:27:54.977Z,54.85
2019-05-12T19:30:00.453Z,54.59
2019-05-12T19:32:11.326Z,54.07
2019-05-12T19:34:25.795Z,53.90
2019-05-12T19:36:38.126Z,53.92
2019-05-12T19:38:47.779Z,54.04
2019-05-12T19:41:00.797Z,54.65
2019-05-12T19:43:11.487Z,54.62
2019-05-12T19:45:24.943Z,54.47
2019-05-12T19:47:38.346Z,54.01
2019-05-12T19:49:50.637Z,53.51
2019-05-12T19:52:03.428Z,53.24
2019-05-12T19:54:14.086Z,53.80
2019-05-12T19:56:34.649Z,53.11
2019-05-12T19:58:37.945Z,53.12
2019-05-12T20:00:48.901Z,52.85
2019-05-12T20:02:59.781Z,53.19
2019-05-12T20:05:14.287Z,52.35
2019-05-12T20:07:23.815Z,52.67
2019-05-12T20:09:34.800Z,53.91
2019-05-12T20:11:45.658Z,54.01
2019-05-12T20:13:56.536Z,53.90
2019-05-12T20:16:11.529Z,53.20
2019-05-12T20:18:20.372Z,53.23
2019-05-12T20:20:36.709Z,54.08
2019-05-12T20:22:44.281Z,54.57
2019-05-12T20:24:55.152Z,54.29
2019-05-12T20:27:10.528Z,55.04
2019-05-12T20:29:24.557Z,54.89
2019-05-12T20:31:35.518Z,55.15
2019-05-12T20:33:44.792Z,55.14
2019-05-12T20:35:55.747Z,55.74
2019-05-12T20:38:06.597Z,56.39
2019-05-12T20:40:17.678Z,59.02
2019-05-12T20:42:33.991Z,61.95
2019-05-12T20:44:43.613Z,64.22
2019-05-12T20:46:56.252Z,64.95
2019-05-12T20:49:11.877Z,65.57
2019-05-12T20:51:20.339Z,66.06
2019-05-12T20:53:33.663Z,66.37
2019-05-12T20:55:44.377Z,67.15
2019-05-12T20:57:56.917Z,66.87
2019-05-12T21:00:08.748Z,67.05
2019-05-12T21:02:19.640Z,67.32
2019-05-12T21:04:33.338Z,68.13
2019-05-12T21:06:43.337Z,68.33
2019-05-12T21:08:56.438Z,68.96
2019-05-12T21:11:06.951Z,69.66
2019-05-12T21:13:20.352Z,70.09
2019-05-12T21:15:37.174Z,70.41
2019-05-12T21:17:46.831Z,70.55
2019-05-12T21:19:59.400Z,70.73
2019-05-12T21:22:08.971Z,70.74
2019-05-12T21:24:19.829Z,70.74
2019-05-12T21:26:34.716Z,70.83
2019-05-12T21:28:48.086Z,71.12
2019-05-12T21:30:56.269Z,71.39
2019-05-12T21:33:07.336Z,71.14
2019-05-12T21:35:22.501Z,71.03
2019-05-12T21:37:30.946Z,71.21
2019-05-12T21:39:46.816Z,70.95
2019-05-12T21:41:55.004Z,71.25
2019-05-12T21:44:10.970Z,71.27
2019-05-12T21:46:19.064Z,71.84
2019-05-12T21:48:29.893Z,71.86
2019-05-12T21:50:40.964Z,72.47
2019-05-12T21:52:56.509Z,73.12
2019-05-12T21:55:06.396Z,73.49
2019-05-12T21:57:19.269Z,74.05
2019-05-12T21:59:37.745Z,74.01
2019-05-12T22:01:45.839Z,74.02
2019-05-12T22:04:02.033Z,73.72
2019-05-12T22:06:16.713Z,73.49
2019-05-12T22:08:25.405Z,73.30
2019-05-12T22:10:38.349Z,73.33
2019-05-12T22:12:49.217Z,73.49
2019-05-12T22:15:00.096Z,73.29
2019-05-12T22:17:13.513Z,73.32
2019-05-12T22:19:23.846Z,73.70
2019-05-12T22:21:35.806Z,74.13
2019-05-12T22:23:51.130Z,74.36
2019-05-12T22:26:00.537Z,74.43
2019-05-12T22:28:13.477Z,74.61
2019-05-12T22:30:25.244Z,74.76
2019-05-12T22:32:36.166Z,74.10
2019-05-12T22:34:47.020Z,74.04
2019-05-12T22:36:59.200Z,73.94
2019-05-12T22:39:10.446Z,74.20
2019-05-12T22:41:21.285Z,74.51
2019-05-12T22:43:41.090Z,73.97
2019-05-12T22:45:49.210Z,74.25
2019-05-12T22:47:59.218Z,74.63
2019-05-12T22:50:10.460Z,74.81
2019-05-12T22:52:23.419Z,74.52
2019-05-12T22:54:34.118Z,75.14
2019-05-12T22:56:49.494Z,75.03
2019-05-12T22:58:59.987Z,75.13
2019-05-12T23:01:14.479Z,74.94
2019-05-12T23:03:25.345Z,74.76
2019-05-12T23:05:36.178Z,75.10
2019-05-12T23:07:47.115Z,74.99
2019-05-12T23:10:00.470Z,75.45
2019-05-12T23:12:18.132Z,75.75
2019-05-12T23:14:25.078Z,75.97
2019-05-12T23:16:36.152Z,76.19
2019-05-12T23:18:47.095Z,75.98
2019-05-12T23:20:57.951Z,75.90
2019-05-12T23:23:13.883Z,75.73
2019-05-12T23:25:21.797Z,75.71
2019-05-12T23:27:33.473Z,76.10
2019-05-12T23:29:44.517Z,75.88
2019-05-12T23:32:00.589Z,75.80
2019-05-12T23:34:12.394Z,75.78
2019-05-12T23:36:35.001Z,76.02
2019-05-12T23:38:34.030Z,76.30
2019-05-12T23:40:45.017Z,76.59
2019-05-12T23:42:55.860Z,76.29
2019-05-12T23:45:08.618Z,76.18
2019-05-12T23:47:19.452Z,76.42
2019-05-12T23:49:30.301Z,76.21
2019-05-12T23:51:41.180Z,75.88
2019-05-12T23:53:52.064Z,75.87
2019-05-12T23:56:03.728Z,75.66
2019-05-12T23:58:14.898Z,75.56
